sensor_id;sensor_type;location;lat;lon;timestamp;temperature;humidity
939;DHT22;456;53.584;9.968;2023-04-03T00:00:30;16.80;18.80
939;DHT22;456;53.584;9.968;2023-04-03T00:02:56;16.80;18.60
939;DHT22;456;53.584;9.968;2023-04-03T00:05:22;16.80;18.60
939;DHT22;456;53.584;9.968;2023-04-03T00:07:48;16.80;18.60
939;DHT22;456;53.584;9.968;2023-04-03T00:10:15;16.80;18.70
939;DHT22;456;53.584;9.968;2023-04-03T00:12:41;16.80;18.70
939;DHT22;456;53.584;9.968;2023-04-03T00:15:07;16.80;18.60
939;DHT22;456;53.584;9.968;2023-04-03T00:17:33;16.80;18.60
939;DHT22;456;53.584;9.968;2023-04-03T00:19:58;16.80;18.70
939;DHT22;456;53.584;9.968;2023-04-03T00:22:24;16.80;18.50
939;DHT22;456;53.584;9.968;2023-04-03T00:24:52;16.80;18.40
939;DHT22;456;53.584;9.968;2023-04-03T00:27:17;16.80;18.40
939;DHT22;456;53.584;9.968;2023-04-03T00:29:43;16.80;18.30
939;DHT22;456;53.584;9.968;2023-04-03T00:32:08;16.80;18.30
939;DHT22;456;53.584;9.968;2023-04-03T00:34:34;16.80;18.20
939;DHT22;456;53.584;9.968;2023-04-03T00:36:59;16.80;18.40
939;DHT22;456;53.584;9.968;2023-04-03T00:39:25;16.80;18.30
939;DHT22;456;53.584;9.968;2023-04-03T00:41:51;16.80;18.40
939;DHT22;456;53.584;9.968;2023-04-03T00:45:23;16.80;18.40
939;DHT22;456;53.584;9.968;2023-04-03T00:47:11;16.80;18.30
939;DHT22;456;53.584;9.968;2023-04-03T00:49:38;16.80;18.40
939;DHT22;456;53.584;9.968;2023-04-03T00:52:11;16.80;18.30
939;DHT22;456;53.584;9.968;2023-04-03T00:54:39;16.80;18.20
939;DHT22;456;53.584;9.968;2023-04-03T00:57:06;16.90;18.50
939;DHT22;456;53.584;9.968;2023-04-03T00:59:35;16.80;18.40
939;DHT22;456;53.584;9.968;2023-04-03T01:02:01;16.80;18.40
939;DHT22;456;53.584;9.968;2023-04-03T01:06:55;16.80;18.20
939;DHT22;456;53.584;9.968;2023-04-03T01:09:22;16.80;18.10
939;DHT22;456;53.584;9.968;2023-04-03T01:11:48;16.80;18.00
939;DHT22;456;53.584;9.968;2023-04-03T01:14:13;16.80;18.10
939;DHT22;456;53.584;9.968;2023-04-03T01:16:39;16.80;18.10
939;DHT22;456;53.584;9.968;2023-04-03T01:19:10;16.80;18.20
939;DHT22;456;53.584;9.968;2023-04-03T01:22:13;16.90;18.10
939;DHT22;456;53.584;9.968;2023-04-03T01:24:35;16.80;18.10
939;DHT22;456;53.584;9.968;2023-04-03T01:27:03;16.80;18.00
939;DHT22;456;53.584;9.968;2023-04-03T01:29:29;16.80;17.90
939;DHT22;456;53.584;9.968;2023-04-03T01:31:57;16.80;18.00
939;DHT22;456;53.584;9.968;2023-04-03T01:34:24;16.80;17.90
939;DHT22;456;53.584;9.968;2023-04-03T01:36:50;16.80;18.10
939;DHT22;456;53.584;9.968;2023-04-03T01:39:16;16.80;17.90
939;DHT22;456;53.584;9.968;2023-04-03T01:41:43;16.80;17.90
939;DHT22;456;53.584;9.968;2023-04-03T01:44:08;16.80;17.80
939;DHT22;456;53.584;9.968;2023-04-03T01:46:34;16.80;17.90
939;DHT22;456;53.584;9.968;2023-04-03T01:49:00;16.80;17.80
939;DHT22;456;53.584;9.968;2023-04-03T01:51:26;16.80;17.80
939;DHT22;456;53.584;9.968;2023-04-03T01:53:51;16.80;17.80
939;DHT22;456;53.584;9.968;2023-04-03T01:56:17;16.80;17.80
939;DHT22;456;53.584;9.968;2023-04-03T01:58:43;16.80;17.90
939;DHT22;456;53.584;9.968;2023-04-03T02:01:08;16.80;17.80
939;DHT22;456;53.584;9.968;2023-04-03T02:03:34;16.80;17.80
939;DHT22;456;53.584;9.968;2023-04-03T02:05:59;16.80;17.80
939;DHT22;456;53.584;9.968;2023-04-03T02:08:25;16.80;17.90
939;DHT22;456;53.584;9.968;2023-04-03T02:10:50;16.80;17.70
939;DHT22;456;53.584;9.968;2023-04-03T02:13:16;16.80;17.80
939;DHT22;456;53.584;9.968;2023-04-03T02:15:42;16.80;17.80
939;DHT22;456;53.584;9.968;2023-04-03T02:18:08;16.80;17.90
939;DHT22;456;53.584;9.968;2023-04-03T02:20:34;16.80;17.70
939;DHT22;456;53.584;9.968;2023-04-03T02:23:00;16.80;17.70
939;DHT22;456;53.584;9.968;2023-04-03T02:25:26;16.80;17.50
939;DHT22;456;53.584;9.968;2023-04-03T02:27:52;16.80;17.50
939;DHT22;456;53.584;9.968;2023-04-03T02:30:17;16.80;17.60
939;DHT22;456;53.584;9.968;2023-04-03T02:32:43;16.80;17.60
939;DHT22;456;53.584;9.968;2023-04-03T02:35:10;16.80;17.60
939;DHT22;456;53.584;9.968;2023-04-03T02:37:36;16.80;17.60
939;DHT22;456;53.584;9.968;2023-04-03T02:40:03;16.80;17.60
939;DHT22;456;53.584;9.968;2023-04-03T02:42:29;16.80;17.50
939;DHT22;456;53.584;9.968;2023-04-03T02:44:54;16.80;17.50
939;DHT22;456;53.584;9.968;2023-04-03T02:47:20;16.80;17.40
939;DHT22;456;53.584;9.968;2023-04-03T02:49:46;16.80;17.30
939;DHT22;456;53.584;9.968;2023-04-03T02:52:15;16.80;17.30
939;DHT22;456;53.584;9.968;2023-04-03T02:54:40;16.80;17.40
939;DHT22;456;53.584;9.968;2023-04-03T02:57:06;16.80;17.30
939;DHT22;456;53.584;9.968;2023-04-03T02:59:35;16.80;17.30
939;DHT22;456;53.584;9.968;2023-04-03T03:02:01;16.80;17.40
939;DHT22;456;53.584;9.968;2023-04-03T03:04:26;16.80;17.30
939;DHT22;456;53.584;9.968;2023-04-03T03:06:52;16.80;17.30
939;DHT22;456;53.584;9.968;2023-04-03T03:09:18;16.80;17.40
939;DHT22;456;53.584;9.968;2023-04-03T03:11:43;16.80;17.50
939;DHT22;456;53.584;9.968;2023-04-03T03:14:09;16.80;17.40
939;DHT22;456;53.584;9.968;2023-04-03T03:16:38;16.80;17.40
939;DHT22;456;53.584;9.968;2023-04-03T03:19:04;16.80;17.40
939;DHT22;456;53.584;9.968;2023-04-03T03:21:30;16.80;17.30
939;DHT22;456;53.584;9.968;2023-04-03T03:23:56;16.80;17.30
939;DHT22;456;53.584;9.968;2023-04-03T03:26:21;16.90;17.40
939;DHT22;456;53.584;9.968;2023-04-03T03:28:47;16.80;17.30
939;DHT22;456;53.584;9.968;2023-04-03T03:31:13;16.90;17.40
939;DHT22;456;53.584;9.968;2023-04-03T03:33:40;16.90;17.30
939;DHT22;456;53.584;9.968;2023-04-03T03:36:06;16.90;17.20
939;DHT22;456;53.584;9.968;2023-04-03T03:38:32;16.80;17.10
939;DHT22;456;53.584;9.968;2023-04-03T03:40:57;16.80;17.20
939;DHT22;456;53.584;9.968;2023-04-03T03:43:23;16.80;17.10
939;DHT22;456;53.584;9.968;2023-04-03T03:45:52;16.80;17.00
939;DHT22;456;53.584;9.968;2023-04-03T03:48:19;16.80;17.00
939;DHT22;456;53.584;9.968;2023-04-03T03:50:45;16.80;17.10
939;DHT22;456;53.584;9.968;2023-04-03T03:53:10;16.80;17.10
939;DHT22;456;53.584;9.968;2023-04-03T03:55:36;16.80;17.00
939;DHT22;456;53.584;9.968;2023-04-03T03:58:01;16.80;17.00
939;DHT22;456;53.584;9.968;2023-04-03T04:00:28;16.80;17.10
939;DHT22;456;53.584;9.968;2023-04-03T04:02:53;16.80;18.10
939;DHT22;456;53.584;9.968;2023-04-03T04:05:19;16.70;18.20
939;DHT22;456;53.584;9.968;2023-04-03T04:07:45;16.80;18.30
939;DHT22;456;53.584;9.968;2023-04-03T04:10:11;16.80;18.10
939;DHT22;456;53.584;9.968;2023-04-03T04:12:38;16.80;18.40
939;DHT22;456;53.584;9.968;2023-04-03T04:15:04;16.80;18.30
939;DHT22;456;53.584;9.968;2023-04-03T04:17:30;16.80;18.30
939;DHT22;456;53.584;9.968;2023-04-03T04:19:55;16.80;18.10
939;DHT22;456;53.584;9.968;2023-04-03T04:22:21;16.90;17.90
939;DHT22;456;53.584;9.968;2023-04-03T04:24:47;16.80;18.00
939;DHT22;456;53.584;9.968;2023-04-03T04:27:12;16.90;17.80
939;DHT22;456;53.584;9.968;2023-04-03T04:29:38;16.90;17.60
939;DHT22;456;53.584;9.968;2023-04-03T04:32:04;16.90;17.70
939;DHT22;456;53.584;9.968;2023-04-03T04:34:29;16.90;17.90
939;DHT22;456;53.584;9.968;2023-04-03T04:36:55;17.00;18.10
939;DHT22;456;53.584;9.968;2023-04-03T04:39:21;16.90;17.90
939;DHT22;456;53.584;9.968;2023-04-03T04:41:47;16.80;17.70
939;DHT22;456;53.584;9.968;2023-04-03T04:44:12;16.80;17.80
939;DHT22;456;53.584;9.968;2023-04-03T04:46:38;16.90;17.80
939;DHT22;456;53.584;9.968;2023-04-03T04:49:03;16.90;17.80
939;DHT22;456;53.584;9.968;2023-04-03T04:51:29;16.90;18.00
939;DHT22;456;53.584;9.968;2023-04-03T04:53:55;16.80;17.70
939;DHT22;456;53.584;9.968;2023-04-03T04:56:20;16.80;17.90
939;DHT22;456;53.584;9.968;2023-04-03T04:58:46;16.80;18.00
939;DHT22;456;53.584;9.968;2023-04-03T05:01:12;16.80;18.10
939;DHT22;456;53.584;9.968;2023-04-03T05:03:37;16.90;18.20
939;DHT22;456;53.584;9.968;2023-04-03T05:06:03;16.80;18.20
939;DHT22;456;53.584;9.968;2023-04-03T05:08:30;16.90;18.20
939;DHT22;456;53.584;9.968;2023-04-03T05:10:56;16.80;18.10
939;DHT22;456;53.584;9.968;2023-04-03T05:13:22;16.80;18.30
939;DHT22;456;53.584;9.968;2023-04-03T05:15:47;16.80;18.40
939;DHT22;456;53.584;9.968;2023-04-03T05:18:13;16.80;18.40
939;DHT22;456;53.584;9.968;2023-04-03T05:20:40;16.80;18.30
939;DHT22;456;53.584;9.968;2023-04-03T05:23:06;16.80;18.40
939;DHT22;456;53.584;9.968;2023-04-03T05:25:32;16.80;18.40
939;DHT22;456;53.584;9.968;2023-04-03T05:27:57;16.80;18.40
939;DHT22;456;53.584;9.968;2023-04-03T05:30:23;16.80;18.40
939;DHT22;456;53.584;9.968;2023-04-03T05:32:49;16.80;18.50
939;DHT22;456;53.584;9.968;2023-04-03T05:35:15;16.80;18.50
939;DHT22;456;53.584;9.968;2023-04-03T05:37:41;16.90;18.50
939;DHT22;456;53.584;9.968;2023-04-03T05:40:07;16.80;18.50
939;DHT22;456;53.584;9.968;2023-04-03T05:42:33;16.80;18.50
939;DHT22;456;53.584;9.968;2023-04-03T05:44:58;16.80;18.50
939;DHT22;456;53.584;9.968;2023-04-03T05:47:24;16.80;18.50
939;DHT22;456;53.584;9.968;2023-04-03T05:49:50;16.80;18.60
939;DHT22;456;53.584;9.968;2023-04-03T05:54:50;16.80;18.60
939;DHT22;456;53.584;9.968;2023-04-03T05:57:16;16.90;18.70
939;DHT22;456;53.584;9.968;2023-04-03T05:59:42;16.90;18.70
939;DHT22;456;53.584;9.968;2023-04-03T06:02:13;16.80;18.70
939;DHT22;456;53.584;9.968;2023-04-03T06:04:39;16.90;18.80
939;DHT22;456;53.584;9.968;2023-04-03T06:07:05;16.90;18.90
939;DHT22;456;53.584;9.968;2023-04-03T06:09:31;16.90;18.90
939;DHT22;456;53.584;9.968;2023-04-03T06:11:57;16.90;18.90
939;DHT22;456;53.584;9.968;2023-04-03T06:14:24;16.90;18.90
939;DHT22;456;53.584;9.968;2023-04-03T06:16:51;16.90;18.90
939;DHT22;456;53.584;9.968;2023-04-03T06:19:16;16.90;19.00
939;DHT22;456;53.584;9.968;2023-04-03T06:21:43;16.90;19.00
939;DHT22;456;53.584;9.968;2023-04-03T06:24:10;16.90;19.00
939;DHT22;456;53.584;9.968;2023-04-03T06:26:37;16.90;19.10
939;DHT22;456;53.584;9.968;2023-04-03T06:29:03;16.90;19.00
939;DHT22;456;53.584;9.968;2023-04-03T06:31:29;16.90;19.00
939;DHT22;456;53.584;9.968;2023-04-03T06:33:54;16.90;19.10
939;DHT22;456;53.584;9.968;2023-04-03T06:36:21;16.90;19.10
939;DHT22;456;53.584;9.968;2023-04-03T06:38:47;16.90;19.10
939;DHT22;456;53.584;9.968;2023-04-03T06:41:13;16.90;19.10
939;DHT22;456;53.584;9.968;2023-04-03T06:43:40;16.90;19.20
939;DHT22;456;53.584;9.968;2023-04-03T06:46:05;16.90;19.30
939;DHT22;456;53.584;9.968;2023-04-03T06:48:31;16.90;19.20
939;DHT22;456;53.584;9.968;2023-04-03T06:50:57;16.90;19.20
939;DHT22;456;53.584;9.968;2023-04-03T06:53:23;16.90;19.30
939;DHT22;456;53.584;9.968;2023-04-03T06:55:49;16.90;19.30
939;DHT22;456;53.584;9.968;2023-04-03T06:58:15;16.90;19.30
939;DHT22;456;53.584;9.968;2023-04-03T07:00:42;16.90;19.30
939;DHT22;456;53.584;9.968;2023-04-03T07:03:08;16.90;19.40
939;DHT22;456;53.584;9.968;2023-04-03T07:05:33;16.90;19.40
939;DHT22;456;53.584;9.968;2023-04-03T07:07:59;16.90;19.40
939;DHT22;456;53.584;9.968;2023-04-03T07:10:25;16.90;19.40
939;DHT22;456;53.584;9.968;2023-04-03T07:12:50;16.90;19.40
939;DHT22;456;53.584;9.968;2023-04-03T07:15:16;16.90;19.50
939;DHT22;456;53.584;9.968;2023-04-03T07:17:42;16.90;19.60
939;DHT22;456;53.584;9.968;2023-04-03T07:20:08;16.90;19.60
939;DHT22;456;53.584;9.968;2023-04-03T07:22:34;16.90;19.60
939;DHT22;456;53.584;9.968;2023-04-03T07:25:00;16.90;19.60
939;DHT22;456;53.584;9.968;2023-04-03T07:27:26;16.90;19.60
939;DHT22;456;53.584;9.968;2023-04-03T07:29:52;16.90;19.60
939;DHT22;456;53.584;9.968;2023-04-03T07:32:17;16.90;19.60
939;DHT22;456;53.584;9.968;2023-04-03T07:34:43;16.90;19.70
939;DHT22;456;53.584;9.968;2023-04-03T07:37:10;16.90;19.70
939;DHT22;456;53.584;9.968;2023-04-03T07:39:35;17.00;19.80
939;DHT22;456;53.584;9.968;2023-04-03T07:42:01;17.00;19.80
939;DHT22;456;53.584;9.968;2023-04-03T07:44:27;17.00;19.90
939;DHT22;456;53.584;9.968;2023-04-03T07:46:53;16.90;19.80
939;DHT22;456;53.584;9.968;2023-04-03T07:49:20;17.00;19.90
939;DHT22;456;53.584;9.968;2023-04-03T07:51:48;16.90;19.70
939;DHT22;456;53.584;9.968;2023-04-03T07:54:14;16.90;19.80
939;DHT22;456;53.584;9.968;2023-04-03T07:56:41;16.90;19.80
939;DHT22;456;53.584;9.968;2023-04-03T07:59:09;16.90;19.70
939;DHT22;456;53.584;9.968;2023-04-03T08:01:35;16.90;19.70
939;DHT22;456;53.584;9.968;2023-04-03T08:04:01;16.90;19.70
939;DHT22;456;53.584;9.968;2023-04-03T08:06:27;16.90;19.80
939;DHT22;456;53.584;9.968;2023-04-03T08:08:55;16.90;19.70
939;DHT22;456;53.584;9.968;2023-04-03T08:11:21;16.90;19.80
939;DHT22;456;53.584;9.968;2023-04-03T08:13:48;16.90;19.80
939;DHT22;456;53.584;9.968;2023-04-03T08:16:18;16.90;20.30
939;DHT22;456;53.584;9.968;2023-04-03T08:18:44;16.90;19.90
939;DHT22;456;53.584;9.968;2023-04-03T08:21:11;16.90;19.90
939;DHT22;456;53.584;9.968;2023-04-03T08:23:38;16.90;20.00
939;DHT22;456;53.584;9.968;2023-04-03T08:26:16;16.90;19.90
939;DHT22;456;53.584;9.968;2023-04-03T08:28:42;16.90;19.90
939;DHT22;456;53.584;9.968;2023-04-03T08:31:11;16.90;20.00
939;DHT22;456;53.584;9.968;2023-04-03T08:33:37;16.90;20.00
939;DHT22;456;53.584;9.968;2023-04-03T08:36:04;16.90;20.10
939;DHT22;456;53.584;9.968;2023-04-03T08:38:30;16.90;20.10
939;DHT22;456;53.584;9.968;2023-04-03T08:43:46;16.90;20.10
939;DHT22;456;53.584;9.968;2023-04-03T08:46:14;16.90;20.20
939;DHT22;456;53.584;9.968;2023-04-03T08:48:43;16.90;20.20
939;DHT22;456;53.584;9.968;2023-04-03T08:51:14;16.90;20.20
939;DHT22;456;53.584;9.968;2023-04-03T08:53:46;16.90;20.20
939;DHT22;456;53.584;9.968;2023-04-03T08:56:14;16.90;20.20
939;DHT22;456;53.584;9.968;2023-04-03T08:58:42;16.90;20.30
939;DHT22;456;53.584;9.968;2023-04-03T09:01:20;16.90;20.30
939;DHT22;456;53.584;9.968;2023-04-03T09:03:46;16.90;20.30
939;DHT22;456;53.584;9.968;2023-04-03T09:06:23;16.90;20.30
939;DHT22;456;53.584;9.968;2023-04-03T09:14:53;16.80;20.40
939;DHT22;456;53.584;9.968;2023-04-03T09:17:46;16.80;20.40
939;DHT22;456;53.584;9.968;2023-04-03T09:22:57;16.80;20.40
939;DHT22;456;53.584;9.968;2023-04-03T09:25:27;16.80;20.40
939;DHT22;456;53.584;9.968;2023-04-03T09:27:53;16.80;20.50
939;DHT22;456;53.584;9.968;2023-04-03T09:30:21;16.80;20.60
939;DHT22;456;53.584;9.968;2023-04-03T09:32:50;16.80;20.60
939;DHT22;456;53.584;9.968;2023-04-03T09:35:29;16.80;20.60
939;DHT22;456;53.584;9.968;2023-04-03T09:38:18;16.80;20.60
939;DHT22;456;53.584;9.968;2023-04-03T09:40:49;16.80;20.70
939;DHT22;456;53.584;9.968;2023-04-03T09:43:21;16.80;20.70
939;DHT22;456;53.584;9.968;2023-04-03T09:45:47;16.80;20.70
939;DHT22;456;53.584;9.968;2023-04-03T09:55:56;16.80;20.80
939;DHT22;456;53.584;9.968;2023-04-03T09:58:29;16.80;20.80
939;DHT22;456;53.584;9.968;2023-04-03T10:00:57;16.80;20.90
939;DHT22;456;53.584;9.968;2023-04-03T10:03:35;16.80;20.90
939;DHT22;456;53.584;9.968;2023-04-03T10:06:03;16.80;20.90
939;DHT22;456;53.584;9.968;2023-04-03T10:08:31;16.80;21.00
939;DHT22;456;53.584;9.968;2023-04-03T10:11:12;16.80;21.00
939;DHT22;456;53.584;9.968;2023-04-03T10:13:54;16.70;20.90
939;DHT22;456;53.584;9.968;2023-04-03T10:16:41;16.70;20.90
939;DHT22;456;53.584;9.968;2023-04-03T10:22:08;16.70;21.00
939;DHT22;456;53.584;9.968;2023-04-03T10:24:38;16.70;21.00
939;DHT22;456;53.584;9.968;2023-04-03T10:27:15;16.70;21.00
939;DHT22;456;53.584;9.968;2023-04-03T10:33:05;16.70;21.10
939;DHT22;456;53.584;9.968;2023-04-03T10:36:35;16.70;21.10
939;DHT22;456;53.584;9.968;2023-04-03T10:38:46;16.70;21.10
939;DHT22;456;53.584;9.968;2023-04-03T10:46:56;16.70;21.20
939;DHT22;456;53.584;9.968;2023-04-03T10:49:38;16.70;21.20
939;DHT22;456;53.584;9.968;2023-04-03T10:52:24;16.70;21.20
939;DHT22;456;53.584;9.968;2023-04-03T10:57:47;16.70;21.20
939;DHT22;456;53.584;9.968;2023-04-03T11:00:25;16.70;21.20
939;DHT22;456;53.584;9.968;2023-04-03T11:02:55;16.70;21.30
939;DHT22;456;53.584;9.968;2023-04-03T11:07:53;16.70;21.30
939;DHT22;456;53.584;9.968;2023-04-03T11:13:13;16.70;21.30
939;DHT22;456;53.584;9.968;2023-04-03T11:15:40;16.70;21.40
939;DHT22;456;53.584;9.968;2023-04-03T11:18:13;16.70;21.40
939;DHT22;456;53.584;9.968;2023-04-03T11:20:44;16.70;21.40
939;DHT22;456;53.584;9.968;2023-04-03T11:23:25;16.60;21.40
939;DHT22;456;53.584;9.968;2023-04-03T11:25:56;16.60;21.30
939;DHT22;456;53.584;9.968;2023-04-03T11:28:25;16.60;21.30
939;DHT22;456;53.584;9.968;2023-04-03T11:31:02;16.60;21.40
939;DHT22;456;53.584;9.968;2023-04-03T11:36:33;16.60;21.40
939;DHT22;456;53.584;9.968;2023-04-03T11:39:23;16.60;21.40
939;DHT22;456;53.584;9.968;2023-04-03T11:41:50;16.60;21.40
939;DHT22;456;53.584;9.968;2023-04-03T11:44:29;16.60;21.40
939;DHT22;456;53.584;9.968;2023-04-03T11:46:58;16.60;21.40
939;DHT22;456;53.584;9.968;2023-04-03T12:21:23;16.60;21.60
939;DHT22;456;53.584;9.968;2023-04-03T12:28:58;16.60;21.70
939;DHT22;456;53.584;9.968;2023-04-03T12:31:36;16.60;21.70
939;DHT22;456;53.584;9.968;2023-04-03T12:34:35;16.60;21.70
939;DHT22;456;53.584;9.968;2023-04-03T12:37:17;16.60;21.70
939;DHT22;456;53.584;9.968;2023-04-03T12:42:58;16.50;21.70
939;DHT22;456;53.584;9.968;2023-04-03T12:46:02;16.50;21.70
939;DHT22;456;53.584;9.968;2023-04-03T12:48:30;16.50;21.80
939;DHT22;456;53.584;9.968;2023-04-03T12:50:58;16.50;21.80
939;DHT22;456;53.584;9.968;2023-04-03T12:53:35;16.50;21.80
939;DHT22;456;53.584;9.968;2023-04-03T12:56:24;16.50;21.80
939;DHT22;456;53.584;9.968;2023-04-03T12:58:54;16.60;21.80
939;DHT22;456;53.584;9.968;2023-04-03T13:01:22;16.50;21.90
939;DHT22;456;53.584;9.968;2023-04-03T13:03:57;16.50;21.80
939;DHT22;456;53.584;9.968;2023-04-03T13:06:26;16.50;21.80
939;DHT22;456;53.584;9.968;2023-04-03T13:09:00;16.50;21.90
939;DHT22;456;53.584;9.968;2023-04-03T13:11:30;16.50;21.90
939;DHT22;456;53.584;9.968;2023-04-03T13:14:14;16.50;21.90
939;DHT22;456;53.584;9.968;2023-04-03T13:16:40;16.50;21.90
939;DHT22;456;53.584;9.968;2023-04-03T13:19:16;16.50;21.90
939;DHT22;456;53.584;9.968;2023-04-03T13:21:42;16.50;21.90
939;DHT22;456;53.584;9.968;2023-04-03T13:24:10;16.50;21.90
939;DHT22;456;53.584;9.968;2023-04-03T13:26:36;16.50;22.50
939;DHT22;456;53.584;9.968;2023-04-03T13:29:06;16.50;21.90
939;DHT22;456;53.584;9.968;2023-04-03T13:31:37;16.50;21.90
939;DHT22;456;53.584;9.968;2023-04-03T13:34:11;16.50;21.90
939;DHT22;456;53.584;9.968;2023-04-03T13:36:45;16.50;21.90
939;DHT22;456;53.584;9.968;2023-04-03T13:41:45;16.50;21.90
939;DHT22;456;53.584;9.968;2023-04-03T13:46:50;16.50;22.00
939;DHT22;456;53.584;9.968;2023-04-03T13:49:22;16.50;22.00
939;DHT22;456;53.584;9.968;2023-04-03T13:51:48;16.50;22.00
939;DHT22;456;53.584;9.968;2023-04-03T13:54:21;16.50;22.00
939;DHT22;456;53.584;9.968;2023-04-03T13:56:54;16.50;22.10
939;DHT22;456;53.584;9.968;2023-04-03T13:59:24;16.50;22.10
939;DHT22;456;53.584;9.968;2023-04-03T14:04:25;16.50;22.00
939;DHT22;456;53.584;9.968;2023-04-03T14:06:52;16.50;22.00
939;DHT22;456;53.584;9.968;2023-04-03T14:09:18;16.50;22.00
939;DHT22;456;53.584;9.968;2023-04-03T14:11:45;16.50;22.10
939;DHT22;456;53.584;9.968;2023-04-03T14:14:20;16.50;22.10
939;DHT22;456;53.584;9.968;2023-04-03T14:16:51;16.40;22.00
939;DHT22;456;53.584;9.968;2023-04-03T14:19:26;16.50;22.10
939;DHT22;456;53.584;9.968;2023-04-03T14:21:54;16.40;22.10
939;DHT22;456;53.584;9.968;2023-04-03T14:24:20;16.40;22.10
939;DHT22;456;53.584;9.968;2023-04-03T14:26:48;16.50;22.10
939;DHT22;456;53.584;9.968;2023-04-03T14:29:14;16.40;22.10
939;DHT22;456;53.584;9.968;2023-04-03T14:31:41;16.40;22.10
939;DHT22;456;53.584;9.968;2023-04-03T14:34:06;16.40;22.10
939;DHT22;456;53.584;9.968;2023-04-03T14:36:32;16.40;22.10
939;DHT22;456;53.584;9.968;2023-04-03T14:38:59;16.40;22.10
939;DHT22;456;53.584;9.968;2023-04-03T14:41:26;16.40;22.10
939;DHT22;456;53.584;9.968;2023-04-03T14:43:52;16.40;22.10
939;DHT22;456;53.584;9.968;2023-04-03T14:46:32;16.40;22.10
939;DHT22;456;53.584;9.968;2023-04-03T14:48:58;16.40;22.10
939;DHT22;456;53.584;9.968;2023-04-03T14:51:24;16.40;22.20
939;DHT22;456;53.584;9.968;2023-04-03T14:53:50;16.40;22.10
939;DHT22;456;53.584;9.968;2023-04-03T14:56:25;16.40;22.10
939;DHT22;456;53.584;9.968;2023-04-03T14:58:58;16.40;22.10
939;DHT22;456;53.584;9.968;2023-04-03T15:01:24;16.40;22.10
939;DHT22;456;53.584;9.968;2023-04-03T15:03:50;16.40;22.20
939;DHT22;456;53.584;9.968;2023-04-03T15:06:16;16.40;22.20
939;DHT22;456;53.584;9.968;2023-04-03T15:08:42;16.40;22.20
939;DHT22;456;53.584;9.968;2023-04-03T15:11:11;16.40;22.20
939;DHT22;456;53.584;9.968;2023-04-03T15:13:38;16.40;22.30
939;DHT22;456;53.584;9.968;2023-04-03T15:16:05;16.40;22.20
939;DHT22;456;53.584;9.968;2023-04-03T15:18:36;16.40;22.70
939;DHT22;456;53.584;9.968;2023-04-03T15:21:03;16.40;22.20
939;DHT22;456;53.584;9.968;2023-04-03T15:23:28;16.40;22.20
939;DHT22;456;53.584;9.968;2023-04-03T15:25:55;16.40;22.20
939;DHT22;456;53.584;9.968;2023-04-03T15:28:41;16.40;22.30
939;DHT22;456;53.584;9.968;2023-04-03T15:31:07;16.40;22.30
939;DHT22;456;53.584;9.968;2023-04-03T15:33:34;16.40;22.30
939;DHT22;456;53.584;9.968;2023-04-03T15:36:00;16.40;22.90
939;DHT22;456;53.584;9.968;2023-04-03T15:38:25;16.40;22.30
939;DHT22;456;53.584;9.968;2023-04-03T15:40:51;16.40;22.30
939;DHT22;456;53.584;9.968;2023-04-03T15:43:17;16.40;22.30
939;DHT22;456;53.584;9.968;2023-04-03T15:45:43;16.40;22.40
939;DHT22;456;53.584;9.968;2023-04-03T15:48:10;16.40;22.40
939;DHT22;456;53.584;9.968;2023-04-03T15:50:35;16.40;22.40
939;DHT22;456;53.584;9.968;2023-04-03T15:53:01;16.40;22.30
939;DHT22;456;53.584;9.968;2023-04-03T15:55:33;16.40;22.40
939;DHT22;456;53.584;9.968;2023-04-03T15:57:59;16.40;22.40
939;DHT22;456;53.584;9.968;2023-04-03T16:00:25;16.40;22.40
939;DHT22;456;53.584;9.968;2023-04-03T16:02:58;16.40;22.40
939;DHT22;456;53.584;9.968;2023-04-03T16:05:24;16.40;22.40
939;DHT22;456;53.584;9.968;2023-04-03T16:07:51;16.40;22.40
939;DHT22;456;53.584;9.968;2023-04-03T16:10:18;16.40;22.40
939;DHT22;456;53.584;9.968;2023-04-03T16:12:44;16.40;22.40
939;DHT22;456;53.584;9.968;2023-04-03T16:15:10;16.40;22.40
939;DHT22;456;53.584;9.968;2023-04-03T16:17:37;16.40;22.50
939;DHT22;456;53.584;9.968;2023-04-03T16:20:05;16.40;22.40
939;DHT22;456;53.584;9.968;2023-04-03T16:22:31;16.40;22.40
939;DHT22;456;53.584;9.968;2023-04-03T16:24:57;16.40;22.40
939;DHT22;456;53.584;9.968;2023-04-03T16:27:23;16.40;22.50
939;DHT22;456;53.584;9.968;2023-04-03T16:29:53;16.40;22.50
939;DHT22;456;53.584;9.968;2023-04-03T16:32:19;16.40;22.50
939;DHT22;456;53.584;9.968;2023-04-03T16:34:45;16.40;22.50
939;DHT22;456;53.584;9.968;2023-04-03T16:37:11;16.30;22.40
939;DHT22;456;53.584;9.968;2023-04-03T16:39:36;16.40;22.50
939;DHT22;456;53.584;9.968;2023-04-03T16:42:02;16.40;22.50
939;DHT22;456;53.584;9.968;2023-04-03T16:44:27;16.30;22.40
939;DHT22;456;53.584;9.968;2023-04-03T16:46:54;16.40;22.50
939;DHT22;456;53.584;9.968;2023-04-03T16:49:20;16.40;22.50
939;DHT22;456;53.584;9.968;2023-04-03T16:51:45;16.30;22.50
939;DHT22;456;53.584;9.968;2023-04-03T16:54:11;16.30;22.50
939;DHT22;456;53.584;9.968;2023-04-03T16:56:39;16.30;22.50
939;DHT22;456;53.584;9.968;2023-04-03T16:59:05;16.40;23.00
939;DHT22;456;53.584;9.968;2023-04-03T17:01:31;16.30;22.50
939;DHT22;456;53.584;9.968;2023-04-03T17:03:57;16.30;22.40
939;DHT22;456;53.584;9.968;2023-04-03T17:06:23;16.30;22.50
939;DHT22;456;53.584;9.968;2023-04-03T17:08:50;16.40;22.60
939;DHT22;456;53.584;9.968;2023-04-03T17:11:17;16.40;22.50
939;DHT22;456;53.584;9.968;2023-04-03T17:13:43;16.40;22.60
939;DHT22;456;53.584;9.968;2023-04-03T17:16:11;16.40;23.10
939;DHT22;456;53.584;9.968;2023-04-03T17:18:37;16.40;22.60
939;DHT22;456;53.584;9.968;2023-04-03T17:21:04;16.40;22.50
939;DHT22;456;53.584;9.968;2023-04-03T17:23:31;16.40;22.60
939;DHT22;456;53.584;9.968;2023-04-03T17:25:59;16.40;22.50
939;DHT22;456;53.584;9.968;2023-04-03T17:28:25;16.40;22.60
939;DHT22;456;53.584;9.968;2023-04-03T17:30:57;16.40;22.50
939;DHT22;456;53.584;9.968;2023-04-03T17:33:24;16.40;22.60
939;DHT22;456;53.584;9.968;2023-04-03T17:35:50;16.40;22.60
939;DHT22;456;53.584;9.968;2023-04-03T17:38:16;16.40;22.60
939;DHT22;456;53.584;9.968;2023-04-03T17:40:41;16.30;22.50
939;DHT22;456;53.584;9.968;2023-04-03T17:43:09;16.40;22.60
939;DHT22;456;53.584;9.968;2023-04-03T17:45:35;16.40;22.60
939;DHT22;456;53.584;9.968;2023-04-03T17:48:01;16.40;22.60
939;DHT22;456;53.584;9.968;2023-04-03T17:50:27;16.40;22.60
939;DHT22;456;53.584;9.968;2023-04-03T17:52:53;16.40;22.60
939;DHT22;456;53.584;9.968;2023-04-03T17:55:18;16.40;22.60
939;DHT22;456;53.584;9.968;2023-04-03T17:57:44;16.40;22.60
939;DHT22;456;53.584;9.968;2023-04-03T18:00:10;16.40;22.70
939;DHT22;456;53.584;9.968;2023-04-03T18:02:36;16.40;22.70
939;DHT22;456;53.584;9.968;2023-04-03T18:05:02;16.40;22.70
939;DHT22;456;53.584;9.968;2023-04-03T18:07:27;16.40;22.70
939;DHT22;456;53.584;9.968;2023-04-03T18:09:54;16.40;22.70
939;DHT22;456;53.584;9.968;2023-04-03T18:12:21;16.40;22.70
939;DHT22;456;53.584;9.968;2023-04-03T18:14:47;16.40;22.60